sensor_id;sensor_type;location;lat;lon;timestamp;pressure;altitude;pressure_sealevel;temperature;humidity
70506;BME280;58032;49.820;6.274;2022-12-29T00:00:17;96761.56;;;7.93;100.00
70506;BME280;58032;49.820;6.274;2022-12-29T00:02:44;96773.13;;;8.04;100.00
70506;BME280;58032;49.820;6.274;2022-12-29T00:05:11;96760.66;;;8.05;100.00
70506;BME280;58032;49.820;6.274;2022-12-29T00:07:38;96761.91;;;8.04;100.00
70506;BME280;58032;49.820;6.274;2022-12-29T00:10:05;96761.59;;;8.02;100.00
70506;BME280;58032;49.820;6.274;2022-12-29T00:12:32;96745.53;;;8.03;100.00
70506;BME280;58032;49.820;6.274;2022-12-29T00:15:19;96770.00;;;8.02;100.00
70506;BME280;58032;49.820;6.274;2022-12-29T00:18:05;96762.31;;;7.93;100.00
70506;BME280;58032;49.820;6.274;2022-12-29T00:20:36;96752.22;;;8.05;100.00
70506;BME280;58032;49.820;6.274;2022-12-29T00:23:22;96747.44;;;8.06;100.00
70506;BME280;58032;49.820;6.274;2022-12-29T00:26:16;96741.97;;;8.02;100.00
70506;BME280;58032;49.820;6.274;2022-12-29T00:29:02;96733.59;;;8.12;100.00
70506;BME280;58032;49.820;6.274;2022-12-29T00:31:48;96727.50;;;8.13;100.00
70506;BME280;58032;49.820;6.274;2022-12-29T00:34:33;96730.13;;;8.07;100.00
70506;BME280;58032;49.820;6.274;2022-12-29T00:37:19;96719.56;;;8.12;100.00
70506;BME280;58032;49.820;6.274;2022-12-29T00:40:06;96708.34;;;8.12;100.00
70506;BME280;58032;49.820;6.274;2022-12-29T00:42:52;96709.28;;;8.18;100.00
70506;BME280;58032;49.820;6.274;2022-12-29T00:45:40;96702.13;;;8.17;100.00
70506;BME280;58032;49.820;6.274;2022-12-29T00:48:07;96711.44;;;8.14;100.00
70506;BME280;58032;49.820;6.274;2022-12-29T00:50:34;96706.78;;;8.20;100.00
70506;BME280;58032;49.820;6.274;2022-12-29T00:53:01;96709.72;;;8.16;100.00
70506;BME280;58032;49.820;6.274;2022-12-29T00:55:27;96701.63;;;8.18;100.00
70506;BME280;58032;49.820;6.274;2022-12-29T00:57:54;96703.69;;;8.27;100.00
70506;BME280;58032;49.820;6.274;2022-12-29T01:00:21;96700.41;;;8.29;100.00
70506;BME280;58032;49.820;6.274;2022-12-29T01:02:48;96710.38;;;8.20;100.00
70506;BME280;58032;49.820;6.274;2022-12-29T01:05:16;96706.78;;;8.20;100.00
70506;BME280;58032;49.820;6.274;2022-12-29T01:07:45;96707.88;;;8.13;100.00
70506;BME280;58032;49.820;6.274;2022-12-29T01:10:12;96716.25;;;8.04;100.00
70506;BME280;58032;49.820;6.274;2022-12-29T01:12:41;96717.97;;;8.01;100.00
70506;BME280;58032;49.820;6.274;2022-12-29T01:15:11;96700.34;;;8.01;100.00
70506;BME280;58032;49.820;6.274;2022-12-29T01:17:41;96719.19;;;7.91;100.00
70506;BME280;58032;49.820;6.274;2022-12-29T01:20:10;96717.03;;;7.95;100.00
70506;BME280;58032;49.820;6.274;2022-12-29T01:22:37;96724.81;;;8.00;100.00
70506;BME280;58032;49.820;6.274;2022-12-29T01:25:05;96721.09;;;8.03;100.00
70506;BME280;58032;49.820;6.274;2022-12-29T01:27:32;96706.59;;;7.96;100.00
70506;BME280;58032;49.820;6.274;2022-12-29T01:29:59;96712.38;;;8.01;100.00
70506;BME280;58032;49.820;6.274;2022-12-29T01:32:26;96703.47;;;8.03;100.00
70506;BME280;58032;49.820;6.274;2022-12-29T01:34:52;96706.13;;;8.06;100.00
70506;BME280;58032;49.820;6.274;2022-12-29T01:37:19;96721.53;;;8.02;100.00
70506;BME280;58032;49.820;6.274;2022-12-29T01:39:46;96715.16;;;8.01;100.00
70506;BME280;58032;49.820;6.274;2022-12-29T01:42:16;96711.56;;;8.01;100.00
70506;BME280;58032;49.820;6.274;2022-12-29T01:45:00;96708.75;;;7.91;100.00
70506;BME280;58032;49.820;6.274;2022-12-29T01:47:36;96698.47;;;7.88;100.00
70506;BME280;58032;49.820;6.274;2022-12-29T01:50:09;96699.56;;;7.91;100.00
70506;BME280;58032;49.820;6.274;2022-12-29T01:52:43;96700.97;;;7.96;100.00
70506;BME280;58032;49.820;6.274;2022-12-29T01:55:11;96699.44;;;8.04;100.00
70506;BME280;58032;49.820;6.274;2022-12-29T01:57:40;96691.63;;;7.89;100.00
70506;BME280;58032;49.820;6.274;2022-12-29T02:00:12;96691.13;;;7.82;100.00
70506;BME280;58032;49.820;6.274;2022-12-29T02:02:47;96679.63;;;7.80;100.00
70506;BME280;58032;49.820;6.274;2022-12-29T02:05:26;96702.94;;;7.76;100.00
70506;BME280;58032;49.820;6.274;2022-12-29T02:07:54;96686.03;;;7.89;100.00
70506;BME280;58032;49.820;6.274;2022-12-29T02:10:24;96686.66;;;8.03;100.00
70506;BME280;58032;49.820;6.274;2022-12-29T02:12:52;96689.97;;;8.11;100.00
70506;BME280;58032;49.820;6.274;2022-12-29T02:15:41;96670.31;;;8.20;100.00
70506;BME280;58032;49.820;6.274;2022-12-29T02:26:35;96646.81;;;8.17;100.00
70506;BME280;58032;49.820;6.274;2022-12-29T02:29:21;96649.44;;;8.21;100.00
70506;BME280;58032;49.820;6.274;2022-12-29T02:31:58;96645.09;;;8.20;100.00
70506;BME280;58032;49.820;6.274;2022-12-29T02:34:49;96651.50;;;8.20;100.00
70506;BME280;58032;49.820;6.274;2022-12-29T02:37:43;96654.75;;;8.19;100.00
70506;BME280;58032;49.820;6.274;2022-12-29T02:40:31;96644.47;;;8.25;100.00
70506;BME280;58032;49.820;6.274;2022-12-29T02:46:00;96660.34;;;8.10;100.00
70506;BME280;58032;49.820;6.274;2022-12-29T02:48:37;96643.06;;;8.20;100.00
70506;BME280;58032;49.820;6.274;2022-12-29T02:51:19;96642.59;;;8.13;100.00
70506;BME280;58032;49.820;6.274;2022-12-29T02:53:48;96642.16;;;8.14;100.00
70506;BME280;58032;49.820;6.274;2022-12-29T02:56:33;96643.84;;;8.12;100.00
70506;BME280;58032;49.820;6.274;2022-12-29T02:59:01;96655.38;;;8.23;100.00
70506;BME280;58032;49.820;6.274;2022-12-29T03:06:50;96626.41;;;8.26;100.00
70506;BME280;58032;49.820;6.274;2022-12-29T03:09:28;96619.09;;;8.29;100.00
70506;BME280;58032;49.820;6.274;2022-12-29T03:15:00;96610.19;;;8.30;100.00
70506;BME280;58032;49.820;6.274;2022-12-29T03:17:57;96602.41;;;8.34;100.00
70506;BME280;58032;49.820;6.274;2022-12-29T03:20:36;96611.75;;;8.31;100.00
70506;BME280;58032;49.820;6.274;2022-12-29T03:23:05;96608.63;;;8.29;100.00
70506;BME280;58032;49.820;6.274;2022-12-29T03:25:43;96603.81;;;8.30;100.00
70506;BME280;58032;49.820;6.274;2022-12-29T03:28:21;96604.59;;;8.30;100.00
70506;BME280;58032;49.820;6.274;2022-12-29T03:30:50;96608.78;;;8.26;100.00
70506;BME280;58032;49.820;6.274;2022-12-29T03:33:22;96609.56;;;8.35;100.00
70506;BME280;58032;49.820;6.274;2022-12-29T03:35:55;96611.13;;;8.36;100.00
70506;BME280;58032;49.820;6.274;2022-12-29T03:38:37;96592.28;;;8.37;100.00
70506;BME280;58032;49.820;6.274;2022-12-29T03:41:10;96596.47;;;8.51;100.00
70506;BME280;58032;49.820;6.274;2022-12-29T03:43:38;96594.94;;;8.40;100.00
70506;BME280;58032;49.820;6.274;2022-12-29T03:46:04;96602.88;;;8.33;100.00
70506;BME280;58032;49.820;6.274;2022-12-29T03:48:32;96603.19;;;8.26;100.00
70506;BME280;58032;49.820;6.274;2022-12-29T03:50:59;96613.78;;;8.21;100.00
70506;BME280;58032;49.820;6.274;2022-12-29T03:53:27;96610.06;;;8.15;100.00
70506;BME280;58032;49.820;6.274;2022-12-29T03:55:54;96603.81;;;8.20;100.00
70506;BME280;58032;49.820;6.274;2022-12-29T03:58:21;96591.66;;;8.14;100.00
70506;BME280;58032;49.820;6.274;2022-12-29T04:01:02;96605.66;;;8.33;100.00
70506;BME280;58032;49.820;6.274;2022-12-29T04:03:33;96588.72;;;8.27;100.00
70506;BME280;58032;49.820;6.274;2022-12-29T04:06:00;96590.25;;;8.28;100.00
70506;BME280;58032;49.820;6.274;2022-12-29T04:08:31;96590.56;;;8.21;100.00
70506;BME280;58032;49.820;6.274;2022-12-29T04:10:58;96588.88;;;8.23;100.00
70506;BME280;58032;49.820;6.274;2022-12-29T04:13:26;96594.94;;;8.22;100.00
70506;BME280;58032;49.820;6.274;2022-12-29T04:15:52;96596.81;;;8.25;100.00
70506;BME280;58032;49.820;6.274;2022-12-29T04:18:19;96600.38;;;8.35;100.00
70506;BME280;58032;49.820;6.274;2022-12-29T04:20:46;96594.16;;;8.31;100.00
70506;BME280;58032;49.820;6.274;2022-12-29T04:23:34;96596.66;;;8.38;100.00
70506;BME280;58032;49.820;6.274;2022-12-29T04:26:04;96587.28;;;8.41;100.00
70506;BME280;58032;49.820;6.274;2022-12-29T04:28:37;96586.34;;;8.44;100.00
70506;BME280;58032;49.820;6.274;2022-12-29T04:31:31;96590.41;;;8.43;100.00
70506;BME280;58032;49.820;6.274;2022-12-29T04:33:58;96585.25;;;8.42;100.00
70506;BME280;58032;49.820;6.274;2022-12-29T04:36:26;96584.19;;;8.48;100.00
70506;BME280;58032;49.820;6.274;2022-12-29T04:38:56;96581.84;;;8.47;100.00
70506;BME280;58032;49.820;6.274;2022-12-29T04:41:23;96577.44;;;8.46;100.00
70506;BME280;58032;49.820;6.274;2022-12-29T04:43:50;96579.94;;;8.44;100.00
70506;BME280;58032;49.820;6.274;2022-12-29T04:46:40;96576.53;;;8.39;100.00
70506;BME280;58032;49.820;6.274;2022-12-29T04:49:10;96574.38;;;8.34;100.00
70506;BME280;58032;49.820;6.274;2022-12-29T04:51:51;96573.41;;;8.37;100.00
70506;BME280;58032;49.820;6.274;2022-12-29T04:54:18;96579.94;;;8.44;100.00
70506;BME280;58032;49.820;6.274;2022-12-29T04:56:55;96575.75;;;8.39;100.00
70506;BME280;58032;49.820;6.274;2022-12-29T04:59:23;96574.19;;;8.47;100.00
70506;BME280;58032;49.820;6.274;2022-12-29T05:01:54;96565.63;;;8.42;100.00
70506;BME280;58032;49.820;6.274;2022-12-29T05:04:21;96570.28;;;8.45;100.00
70506;BME280;58032;49.820;6.274;2022-12-29T05:06:48;96569.03;;;8.46;100.00
70506;BME280;58032;49.820;6.274;2022-12-29T05:09:16;96561.88;;;8.35;100.00
70506;BME280;58032;49.820;6.274;2022-12-29T05:11:44;96558.16;;;8.29;100.00
70506;BME280;58032;49.820;6.274;2022-12-29T05:14:11;96563.16;;;8.25;100.00
70506;BME280;58032;49.820;6.274;2022-12-29T05:16:37;96563.75;;;8.20;100.00
70506;BME280;58032;49.820;6.274;2022-12-29T05:19:04;96569.09;;;8.18;100.00
70506;BME280;58032;49.820;6.274;2022-12-29T05:21:32;96568.28;;;8.17;100.00
70506;BME280;58032;49.820;6.274;2022-12-29T05:23:59;96569.41;;;8.11;100.00
70506;BME280;58032;49.820;6.274;2022-12-29T05:26:27;96584.03;;;8.15;100.00
70506;BME280;58032;49.820;6.274;2022-12-29T05:29:22;96576.41;;;7.97;100.00
70506;BME280;58032;49.820;6.274;2022-12-29T05:31:49;96564.09;;;8.03;100.00
70506;BME280;58032;49.820;6.274;2022-12-29T05:34:16;96554.28;;;8.08;100.00
70506;BME280;58032;49.820;6.274;2022-12-29T05:36:43;96554.13;;;8.12;100.00
70506;BME280;58032;49.820;6.274;2022-12-29T05:39:10;96557.88;;;8.18;100.00
70506;BME280;58032;49.820;6.274;2022-12-29T05:41:37;96571.09;;;8.17;100.00
70506;BME280;58032;49.820;6.274;2022-12-29T05:44:24;96573.75;;;8.12;100.00
70506;BME280;58032;49.820;6.274;2022-12-29T05:47:26;96580.91;;;8.13;100.00
70506;BME280;58032;49.820;6.274;2022-12-29T05:50:22;96574.22;;;8.10;100.00
70506;BME280;58032;49.820;6.274;2022-12-29T05:53:07;96583.09;;;8.18;100.00
70506;BME280;58032;49.820;6.274;2022-12-29T05:55:36;96579.34;;;8.21;100.00
70506;BME280;58032;49.820;6.274;2022-12-29T05:58:03;96563.75;;;8.29;100.00
70506;BME280;58032;49.820;6.274;2022-12-29T06:00:30;96559.25;;;8.22;100.00
70506;BME280;58032;49.820;6.274;2022-12-29T06:02:58;96552.09;;;8.21;100.00
70506;BME280;58032;49.820;6.274;2022-12-29T06:05:25;96564.56;;;8.30;100.00
70506;BME280;58032;49.820;6.274;2022-12-29T06:07:52;96567.34;;;8.30;100.00
70506;BME280;58032;49.820;6.274;2022-12-29T06:10:19;96573.13;;;8.17;100.00
70506;BME280;58032;49.820;6.274;2022-12-29T06:12:51;96590.88;;;8.23;100.00
70506;BME280;58032;49.820;6.274;2022-12-29T06:15:18;96577.78;;;8.20;100.00
70506;BME280;58032;49.820;6.274;2022-12-29T06:17:48;96569.38;;;8.29;100.00
70506;BME280;58032;49.820;6.274;2022-12-29T06:20:15;96580.91;;;8.22;100.00
70506;BME280;58032;49.820;6.274;2022-12-29T06:22:42;96577.66;;;8.23;100.00
70506;BME280;58032;49.820;6.274;2022-12-29T06:25:09;96592.28;;;8.28;100.00
70506;BME280;58032;49.820;6.274;2022-12-29T06:27:37;96577.94;;;8.35;100.00
70506;BME280;58032;49.820;6.274;2022-12-29T06:30:04;96590.25;;;8.37;100.00
70506;BME280;58032;49.820;6.274;2022-12-29T06:32:31;96584.78;;;8.43;100.00
70506;BME280;58032;49.820;6.274;2022-12-29T06:35:03;96586.81;;;8.43;100.00
70506;BME280;58032;49.820;6.274;2022-12-29T06:37:30;96602.38;;;8.44;100.00
70506;BME280;58032;49.820;6.274;2022-12-29T06:39:58;96610.34;;;8.36;100.00
70506;BME280;58032;49.820;6.274;2022-12-29T06:42:31;96637.59;;;8.35;100.00
70506;BME280;58032;49.820;6.274;2022-12-29T06:45:17;96642.75;;;8.28;100.00
70506;BME280;58032;49.820;6.274;2022-12-29T06:47:44;96640.56;;;8.32;100.00
70506;BME280;58032;49.820;6.274;2022-12-29T06:50:11;96651.03;;;8.31;100.00
70506;BME280;58032;49.820;6.274;2022-12-29T06:52:38;96659.72;;;8.15;100.00
70506;BME280;58032;49.820;6.274;2022-12-29T06:55:05;96660.94;;;7.86;100.00
70506;BME280;58032;49.820;6.274;2022-12-29T06:57:32;96684.25;;;7.64;100.00
70506;BME280;58032;49.820;6.274;2022-12-29T06:59:58;96674.34;;;7.41;100.00
70506;BME280;58032;49.820;6.274;2022-12-29T07:02:25;96649.97;;;7.19;100.00
70506;BME280;58032;49.820;6.274;2022-12-29T07:04:52;96669.41;;;7.13;100.00
70506;BME280;58032;49.820;6.274;2022-12-29T07:07:20;96671.88;;;7.11;100.00
70506;BME280;58032;49.820;6.274;2022-12-29T07:09:47;96654.75;;;7.09;100.00
70506;BME280;58032;49.820;6.274;2022-12-29T07:12:14;96672.25;;;7.23;100.00
70506;BME280;58032;49.820;6.274;2022-12-29T07:14:41;96676.28;;;7.22;100.00
70506;BME280;58032;49.820;6.274;2022-12-29T07:17:08;96673.81;;;7.24;100.00
70506;BME280;58032;49.820;6.274;2022-12-29T07:19:35;96679.91;;;7.32;100.00
70506;BME280;58032;49.820;6.274;2022-12-29T07:22:02;96680.56;;;7.36;100.00
70506;BME280;58032;49.820;6.274;2022-12-29T07:24:29;96678.56;;;7.45;100.00
70506;BME280;58032;49.820;6.274;2022-12-29T07:26:56;96683.59;;;7.60;100.00
70506;BME280;58032;49.820;6.274;2022-12-29T07:29:23;96675.06;;;7.73;100.00
70506;BME280;58032;49.820;6.274;2022-12-29T07:31:50;96679.91;;;7.82;100.00
70506;BME280;58032;49.820;6.274;2022-12-29T07:34:17;96675.44;;;7.93;100.00
70506;BME280;58032;49.820;6.274;2022-12-29T07:36:43;96671.88;;;8.02;100.00
70506;BME280;58032;49.820;6.274;2022-12-29T07:39:10;96668.78;;;8.10;100.00
70506;BME280;58032;49.820;6.274;2022-12-29T07:41:38;96691.81;;;8.14;100.00
70506;BME280;58032;49.820;6.274;2022-12-29T07:44:09;96692.13;;;8.16;100.00
70506;BME280;58032;49.820;6.274;2022-12-29T07:47:00;96695.72;;;8.07;100.00
70506;BME280;58032;49.820;6.274;2022-12-29T07:49:27;96707.06;;;8.13;100.00
70506;BME280;58032;49.820;6.274;2022-12-29T07:51:54;96714.09;;;8.17;100.00
70506;BME280;58032;49.820;6.274;2022-12-29T07:54:21;96713.50;;;8.22;100.00
70506;BME280;58032;49.820;6.274;2022-12-29T07:56:49;96721.28;;;8.18;100.00
70506;BME280;58032;49.820;6.274;2022-12-29T07:59:16;96714.44;;;8.29;100.00
70506;BME280;58032;49.820;6.274;2022-12-29T08:01:43;96716.78;;;8.30;100.00
70506;BME280;58032;49.820;6.274;2022-12-29T08:04:09;96716.78;;;8.30;100.00
70506;BME280;58032;49.820;6.274;2022-12-29T08:06:36;96716.16;;;8.35;100.00
70506;BME280;58032;49.820;6.274;2022-12-29T08:09:04;96712.09;;;8.27;100.00
70506;BME280;58032;49.820;6.274;2022-12-29T08:11:36;96713.66;;;8.28;100.00
70506;BME280;58032;49.820;6.274;2022-12-29T08:14:03;96717.22;;;8.19;100.00
70506;BME280;58032;49.820;6.274;2022-12-29T08:16:30;96726.56;;;8.16;100.00
70506;BME280;58032;49.820;6.274;2022-12-29T08:18:57;96740.56;;;8.16;100.00
70506;BME280;58032;49.820;6.274;2022-12-29T08:21:27;96735.59;;;8.11;100.00
70506;BME280;58032;49.820;6.274;2022-12-29T08:23:54;96744.66;;;8.15;100.00
70506;BME280;58032;49.820;6.274;2022-12-29T08:26:21;96755.06;;;8.15;100.00
70506;BME280;58032;49.820;6.274;2022-12-29T08:28:54;96745.88;;;8.14;100.00
70506;BME280;58032;49.820;6.274;2022-12-29T08:31:22;96748.72;;;8.23;100.00
70506;BME280;58032;49.820;6.274;2022-12-29T08:33:50;96750.09;;;8.19;100.00
70506;BME280;58032;49.820;6.274;2022-12-29T08:36:17;96763.47;;;8.15;100.00
70506;BME280;58032;49.820;6.274;2022-12-29T08:38:44;96771.13;;;8.14;100.00
70506;BME280;58032;49.820;6.274;2022-12-29T08:41:10;96767.22;;;8.12;100.00
70506;BME280;58032;49.820;6.274;2022-12-29T08:43:37;96765.38;;;8.18;100.00
70506;BME280;58032;49.820;6.274;2022-12-29T08:46:04;96761.00;;;8.17;100.00
70506;BME280;58032;49.820;6.274;2022-12-29T08:48:31;96766.00;;;8.22;100.00
70506;BME280;58032;49.820;6.274;2022-12-29T08:50:58;96769.13;;;8.24;100.00
70506;BME280;58032;49.820;6.274;2022-12-29T08:53:24;96767.56;;;8.23;100.00
70506;BME280;58032;49.820;6.274;2022-12-29T08:55:56;96785.28;;;8.20;100.00
70506;BME280;58032;49.820;6.274;2022-12-29T08:58:26;96783.31;;;8.30;100.00
70506;BME280;58032;49.820;6.274;2022-12-29T09:00:54;96771.91;;;8.24;100.00
70506;BME280;58032;49.820;6.274;2022-12-29T09:03:23;96788.91;;;8.20;100.00
70506;BME280;58032;49.820;6.274;2022-12-29T09:06:03;96785.66;;;8.31;100.00
70506;BME280;58032;49.820;6.274;2022-12-29T09:08:30;96788.94;;;8.30;100.00
70506;BME280;58032;49.820;6.274;2022-12-29T09:11:06;96780.81;;;8.22;100.00
70506;BME280;58032;49.820;6.274;2022-12-29T09:13:34;96788.72;;;8.15;100.00
70506;BME280;58032;49.820;6.274;2022-12-29T09:16:01;96791.56;;;8.24;100.00
70506;BME280;58032;49.820;6.274;2022-12-29T09:18:28;96785.44;;;8.16;100.00
70506;BME280;58032;49.820;6.274;2022-12-29T09:20:57;96790.09;;;8.10;100.00
70506;BME280;58032;49.820;6.274;2022-12-29T09:23:24;96795.41;;;8.08;100.00
70506;BME280;58032;49.820;6.274;2022-12-29T09:25:51;96803.06;;;8.17;100.00
70506;BME280;58032;49.820;6.274;2022-12-29T09:28:19;96807.09;;;8.16;100.00
70506;BME280;58032;49.820;6.274;2022-12-29T09:30:46;96814.28;;;8.17;100.00
70506;BME280;58032;49.820;6.274;2022-12-29T09:33:13;96811.47;;;8.17;100.00
70506;BME280;58032;49.820;6.274;2022-12-29T09:35:44;96805.06;;;8.07;100.00
70506;BME280;58032;49.820;6.274;2022-12-29T09:38:11;96822.97;;;8.10;100.00
70506;BME280;58032;49.820;6.274;2022-12-29T09:40:39;96808.66;;;8.17;100.00
70506;BME280;58032;49.820;6.274;2022-12-29T09:46:34;96823.19;;;8.34;100.00
70506;BME280;58032;49.820;6.274;2022-12-29T09:51:56;96830.63;;;8.50;100.00
70506;BME280;58032;49.820;6.274;2022-12-29T09:57:18;96818.78;;;8.83;100.00
70506;BME280;58032;49.820;6.274;2022-12-29T09:59:48;96827.81;;;8.68;100.00
70506;BME280;58032;49.820;6.274;2022-12-29T10:02:33;96834.50;;;8.52;100.00
70506;BME280;58032;49.820;6.274;2022-12-29T10:05:08;96844.66;;;8.50;100.00
70506;BME280;58032;49.820;6.274;2022-12-29T10:07:57;96834.34;;;8.47;100.00
70506;BME280;58032;49.820;6.274;2022-12-29T10:10:34;96833.88;;;8.48;100.00
70506;BME280;58032;49.820;6.274;2022-12-29T10:15:44;96836.84;;;8.54;100.00
70506;BME280;58032;49.820;6.274;2022-12-29T10:23:40;96839.69;;;8.22;100.00
70506;BME280;58032;49.820;6.274;2022-12-29T10:26:17;96828.63;;;8.28;100.00
70506;BME280;58032;49.820;6.274;2022-12-29T10:28:51;96834.53;;;8.12;100.00
70506;BME280;58032;49.820;6.274;2022-12-29T10:31:24;96840.28;;;8.17;100.00
70506;BME280;58032;49.820;6.274;2022-12-29T10:33:56;96837.03;;;8.19;100.00
70506;BME280;58032;49.820;6.274;2022-12-29T10:39:14;96854.31;;;8.17;100.00
70506;BME280;58032;49.820;6.274;2022-12-29T10:41:51;96856.66;;;8.19;100.00
70506;BME280;58032;49.820;6.274;2022-12-29T10:44:20;96852.78;;;8.26;100.00
70506;BME280;58032;49.820;6.274;2022-12-29T10:47:04;96851.88;;;8.29;100.00
70506;BME280;58032;49.820;6.274;2022-12-29T10:49:38;96846.72;;;8.27;100.00
70506;BME280;58032;49.820;6.274;2022-12-29T10:52:06;96847.66;;;8.24;100.00
70506;BME280;58032;49.820;6.274;2022-12-29T10:54:57;96844.53;;;8.31;100.00
70506;BME280;58032;49.820;6.274;2022-12-29T10:57:40;96838.47;;;8.33;100.00
70506;BME280;58032;49.820;6.274;2022-12-29T11:00:17;96864.31;;;8.28;100.00
70506;BME280;58032;49.820;6.274;2022-12-29T11:05:41;96853.25;;;8.24;100.00
70506;BME280;58032;49.820;6.274;2022-12-29T11:08:19;96854.34;;;8.27;100.00
70506;BME280;58032;49.820;6.274;2022-12-29T11:10:58;96854.69;;;8.29;100.00
70506;BME280;58032;49.820;6.274;2022-12-29T11:13:29;96855.16;;;8.27;100.00
70506;BME280;58032;49.820;6.274;2022-12-29T11:15:59;96850.31;;;8.28;100.00
70506;BME280;58032;49.820;6.274;2022-12-29T11:18:38;96858.34;;;8.48;100.00
70506;BME280;58032;49.820;6.274;2022-12-29T11:21:27;96844.16;;;8.51;100.00
70506;BME280;58032;49.820;6.274;2022-12-29T11:24:03;96844.34;;;8.57;100.00
70506;BME280;58032;49.820;6.274;2022-12-29T11:26:32;96840.91;;;8.62;100.00
70506;BME280;58032;49.820;6.274;2022-12-29T11:29:23;96837.50;;;8.77;100.00
70506;BME280;58032;49.820;6.274;2022-12-29T11:31:55;96847.81;;;8.89;100.00
70506;BME280;58032;49.820;6.274;2022-12-29T11:34:30;96842.66;;;8.78;100.00
70506;BME280;58032;49.820;6.274;2022-12-29T11:37:00;96836.88;;;8.73;100.00
70506;BME280;58032;49.820;6.274;2022-12-29T11:42:06;96846.72;;;8.86;100.00
70506;BME280;58032;49.820;6.274;2022-12-29T11:44:43;96855.63;;;8.85;100.00
70506;BME280;58032;49.820;6.274;2022-12-29T11:47:20;96856.25;;;8.80;100.00
70506;BME280;58032;49.820;6.274;2022-12-29T11:49:54;96841.56;;;8.85;100.00
70506;BME280;58032;49.820;6.274;2022-12-29T11:52:24;96839.41;;;9.17;100.00
70506;BME280;58032;49.820;6.274;2022-12-29T11:54:53;96832.84;;;9.48;100.00
70506;BME280;58032;49.820;6.274;2022-12-29T11:57:22;96837.91;;;9.77;100.00
70506;BME280;58032;49.820;6.274;2022-12-29T11:59:51;96835.97;;;9.50;100.00
70506;BME280;58032;49.820;6.274;2022-12-29T12:02:22;96840.66;;;9.16;100.00
70506;BME280;58032;49.820;6.274;2022-12-29T12:04:58;96832.88;;;9.11;100.00
70506;BME280;58032;49.820;6.274;2022-12-29T12:07:45;96847.22;;;9.03;100.00
70506;BME280;58032;49.820;6.274;2022-12-29T12:10:21;96833.91;;;8.85;100.00
70506;BME280;58032;49.820;6.274;2022-12-29T12:15:48;96837.84;;;8.88;100.00
70506;BME280;58032;49.820;6.274;2022-12-29T12:21:10;96830.19;;;9.16;100.00
70506;BME280;58032;49.820;6.274;2022-12-29T12:23:56;96838.31;;;9.24;100.00
70506;BME280;58032;49.820;6.274;2022-12-29T12:27:02;96834.56;;;9.17;100.00
70506;BME280;58032;49.820;6.274;2022-12-29T12:32:39;96836.75;;;9.04;100.00
70506;BME280;58032;49.820;6.274;2022-12-29T12:35:15;96837.06;;;8.87;100.00
70506;BME280;58032;49.820;6.274;2022-12-29T12:43:18;96847.34;;;9.09;100.00
70506;BME280;58032;49.820;6.274;2022-12-29T12:46:15;96853.78;;;9.19;100.00
70506;BME280;58032;49.820;6.274;2022-12-29T12:56:56;96853.28;;;9.02;100.00
70506;BME280;58032;49.820;6.274;2022-12-29T12:59:37;96845.34;;;9.00;100.00
70506;BME280;58032;49.820;6.274;2022-12-29T13:18:48;96850.56;;;8.61;100.00
70506;BME280;58032;49.820;6.274;2022-12-29T13:24:27;96854.31;;;8.67;100.00
70506;BME280;58032;49.820;6.274;2022-12-29T13:30:22;96854.03;;;8.75;100.00
70506;BME280;58032;49.820;6.274;2022-12-29T13:33:21;96860.13;;;8.73;100.00
70506;BME280;58032;49.820;6.274;2022-12-29T13:38:42;96856.09;;;8.33;100.00
70506;BME280;58032;49.820;6.274;2022-12-29T13:44:34;96847.13;;;8.16;100.00
70506;BME280;58032;49.820;6.274;2022-12-29T13:47:20;96852.94;;;8.22;100.00
70506;BME280;58032;49.820;6.274;2022-12-29T13:49:50;96840.63;;;8.19;100.00
70506;BME280;58032;49.820;6.274;2022-12-29T13:52:40;96850.78;;;8.35;100.00
70506;BME280;58032;49.820;6.274;2022-12-29T13:58:12;96854.25;;;8.39;100.00
70506;BME280;58032;49.820;6.274;2022-12-29T14:01:27;96861.34;;;8.22;100.00
70506;BME280;58032;49.820;6.274;2022-12-29T14:04:22;96859.34;;;8.22;100.00
70506;BME280;58032;49.820;6.274;2022-12-29T14:07:15;96877.97;;;8.16;100.00
70506;BME280;58032;49.820;6.274;2022-12-29T14:09:53;96886.94;;;7.92;100.00
70506;BME280;58032;49.820;6.274;2022-12-29T14:12:42;96874.41;;;7.84;100.00
70506;BME280;58032;49.820;6.274;2022-12-29T14:18:15;96882.47;;;8.04;100.00
70506;BME280;58032;49.820;6.274;2022-12-29T14:21:07;96881.19;;;8.05;100.00
70506;BME280;58032;49.820;6.274;2022-12-29T14:23:44;96882.50;;;8.14;100.00
70506;BME280;58032;49.820;6.274;2022-12-29T14:26:12;96884.47;;;8.04;100.00
70506;BME280;58032;49.820;6.274;2022-12-29T14:28:47;96891.13;;;7.97;100.00
70506;BME280;58032;49.820;6.274;2022-12-29T14:36:40;96902.66;;;7.68;100.00
70506;BME280;58032;49.820;6.274;2022-12-29T14:39:37;96897.94;;;7.65;100.00
70506;BME280;58032;49.820;6.274;2022-12-29T14:45:34;96896.84;;;7.62;100.00
70506;BME280;58032;49.820;6.274;2022-12-29T14:47:38;96893.97;;;7.53;100.00
70506;BME280;58032;49.820;6.274;2022-12-29T14:50:12;96904.00;;;7.63;100.00
70506;BME280;58032;49.820;6.274;2022-12-29T14:55:37;96909.28;;;7.61;100.00
70506;BME280;58032;49.820;6.274;2022-12-29T14:58:15;96907.44;;;7.67;100.00
70506;BME280;58032;49.820;6.274;2022-12-29T15:00:44;96910.78;;;7.75;100.00
70506;BME280;58032;49.820;6.274;2022-12-29T15:03:22;96916.59;;;7.58;100.00
70506;BME280;58032;49.820;6.274;2022-12-29T15:05:55;96913.44;;;7.56;100.00
70506;BME280;58032;49.820;6.274;2022-12-29T15:08:29;96921.72;;;7.60;100.00
70506;BME280;58032;49.820;6.274;2022-12-29T15:11:01;96919.66;;;7.51;100.00
70506;BME280;58032;49.820;6.274;2022-12-29T15:13:39;96926.16;;;7.48;100.00
70506;BME280;58032;49.820;6.274;2022-12-29T15:16:30;96926.75;;;7.43;100.00
70506;BME280;58032;49.820;6.274;2022-12-29T15:19:03;96935.72;;;7.38;100.00
70506;BME280;58032;49.820;6.274;2022-12-29T15:21:34;96935.28;;;7.39;100.00
70506;BME280;58032;49.820;6.274;2022-12-29T15:24:03;96934.28;;;7.33;100.00